sensor_id;sensor_type;location;lat;lon;timestamp;P1;durP1;ratioP1;P2;durP2;ratioP2
46110;SDS011;31849;55.992;37.252;2023-04-28T00:03:29;12.67;;;7.33;;
46110;SDS011;31849;55.992;37.252;2023-04-28T00:08:33;11.18;;;7.15;;
46110;SDS011;31849;55.992;37.252;2023-04-28T00:13:37;12.10;;;7.70;;
46110;SDS011;31849;55.992;37.252;2023-04-28T00:18:42;14.47;;;8.07;;
46110;SDS011;31849;55.992;37.252;2023-04-28T00:23:46;13.55;;;8.40;;
46110;SDS011;31849;55.992;37.252;2023-04-28T00:28:49;15.50;;;9.00;;
46110;SDS011;31849;55.992;37.252;2023-04-28T00:33:54;12.38;;;8.70;;
46110;SDS011;31849;55.992;37.252;2023-04-28T00:38:58;14.40;;;8.70;;
46110;SDS011;31849;55.992;37.252;2023-04-28T00:44:01;13.02;;;9.15;;
46110;SDS011;31849;55.992;37.252;2023-04-28T00:49:06;11.80;;;9.75;;
46110;SDS011;31849;55.992;37.252;2023-04-28T00:54:11;15.75;;;11.48;;
46110;SDS011;31849;55.992;37.252;2023-04-28T00:59:16;17.65;;;11.82;;
46110;SDS011;31849;55.992;37.252;2023-04-28T01:04:21;17.50;;;12.18;;
46110;SDS011;31849;55.992;37.252;2023-04-28T01:09:25;15.63;;;11.15;;
46110;SDS011;31849;55.992;37.252;2023-04-28T01:14:28;15.57;;;10.35;;
46110;SDS011;31849;55.992;37.252;2023-04-28T01:19:33;18.20;;;12.98;;
46110;SDS011;31849;55.992;37.252;2023-04-28T01:24:39;20.58;;;13.55;;
46110;SDS011;31849;55.992;37.252;2023-04-28T01:29:43;17.83;;;13.35;;
46110;SDS011;31849;55.992;37.252;2023-04-28T01:34:46;19.95;;;13.63;;
46110;SDS011;31849;55.992;37.252;2023-04-28T01:39:51;22.33;;;13.05;;
46110;SDS011;31849;55.992;37.252;2023-04-28T01:44:55;15.10;;;8.98;;
46110;SDS011;31849;55.992;37.252;2023-04-28T01:49:58;21.38;;;15.02;;
46110;SDS011;31849;55.992;37.252;2023-04-28T01:55:04;21.23;;;13.80;;
46110;SDS011;31849;55.992;37.252;2023-04-28T02:00:08;16.55;;;11.88;;
46110;SDS011;31849;55.992;37.252;2023-04-28T02:05:13;22.50;;;15.73;;
46110;SDS011;31849;55.992;37.252;2023-04-28T02:10:18;22.27;;;15.17;;
46110;SDS011;31849;55.992;37.252;2023-04-28T02:15:22;27.17;;;16.33;;
46110;SDS011;31849;55.992;37.252;2023-04-28T02:20:25;22.83;;;15.50;;
46110;SDS011;31849;55.992;37.252;2023-04-28T02:25:33;25.08;;;14.02;;
46110;SDS011;31849;55.992;37.252;2023-04-28T02:30:36;22.80;;;15.57;;
46110;SDS011;31849;55.992;37.252;2023-04-28T02:35:40;20.60;;;14.30;;
46110;SDS011;31849;55.992;37.252;2023-04-28T02:40:45;23.42;;;15.38;;
46110;SDS011;31849;55.992;37.252;2023-04-28T02:45:48;19.88;;;15.02;;
46110;SDS011;31849;55.992;37.252;2023-04-28T02:50:52;20.40;;;15.15;;
46110;SDS011;31849;55.992;37.252;2023-04-28T02:55:57;26.55;;;16.75;;
46110;SDS011;31849;55.992;37.252;2023-04-28T03:01:02;25.40;;;15.77;;
46110;SDS011;31849;55.992;37.252;2023-04-28T03:06:06;29.13;;;16.98;;
46110;SDS011;31849;55.992;37.252;2023-04-28T03:11:11;26.42;;;16.60;;
46110;SDS011;31849;55.992;37.252;2023-04-28T03:16:15;27.92;;;17.23;;
46110;SDS011;31849;55.992;37.252;2023-04-28T03:21:19;26.23;;;16.48;;
46110;SDS011;31849;55.992;37.252;2023-04-28T03:26:24;24.40;;;14.40;;
46110;SDS011;31849;55.992;37.252;2023-04-28T03:31:27;22.38;;;15.88;;
46110;SDS011;31849;55.992;37.252;2023-04-28T03:36:31;21.65;;;15.50;;
46110;SDS011;31849;55.992;37.252;2023-04-28T03:41:36;20.33;;;14.45;;
46110;SDS011;31849;55.992;37.252;2023-04-28T03:46:39;18.67;;;13.77;;
46110;SDS011;31849;55.992;37.252;2023-04-28T03:51:43;23.92;;;15.48;;
46110;SDS011;31849;55.992;37.252;2023-04-28T03:56:48;24.53;;;15.03;;
46110;SDS011;31849;55.992;37.252;2023-04-28T04:01:52;29.65;;;18.60;;
46110;SDS011;31849;55.992;37.252;2023-04-28T04:06:55;24.15;;;17.67;;
46110;SDS011;31849;55.992;37.252;2023-04-28T04:12:00;27.83;;;15.85;;
46110;SDS011;31849;55.992;37.252;2023-04-28T04:17:04;26.70;;;16.38;;
46110;SDS011;31849;55.992;37.252;2023-04-28T04:22:08;24.30;;;16.25;;
46110;SDS011;31849;55.992;37.252;2023-04-28T04:27:13;21.80;;;14.85;;
46110;SDS011;31849;55.992;37.252;2023-04-28T04:32:16;23.73;;;14.68;;
46110;SDS011;31849;55.992;37.252;2023-04-28T04:38:17;21.30;;;13.45;;
46110;SDS011;31849;55.992;37.252;2023-04-28T04:43:22;26.63;;;14.02;;
46110;SDS011;31849;55.992;37.252;2023-04-28T04:48:25;22.38;;;12.93;;
46110;SDS011;31849;55.992;37.252;2023-04-28T04:53:29;20.73;;;13.93;;
46110;SDS011;31849;55.992;37.252;2023-04-28T04:58:34;22.80;;;13.68;;
46110;SDS011;31849;55.992;37.252;2023-04-28T05:03:38;19.98;;;14.70;;
46110;SDS011;31849;55.992;37.252;2023-04-28T05:08:42;18.15;;;13.15;;
46110;SDS011;31849;55.992;37.252;2023-04-28T05:13:47;22.33;;;14.30;;
46110;SDS011;31849;55.992;37.252;2023-04-28T05:18:50;21.08;;;13.68;;
46110;SDS011;31849;55.992;37.252;2023-04-28T05:23:54;19.13;;;12.18;;
46110;SDS011;31849;55.992;37.252;2023-04-28T05:28:59;14.55;;;11.50;;
46110;SDS011;31849;55.992;37.252;2023-04-28T05:34:03;18.52;;;11.63;;
46110;SDS011;31849;55.992;37.252;2023-04-28T05:39:07;14.67;;;11.80;;
46110;SDS011;31849;55.992;37.252;2023-04-28T05:44:12;15.60;;;12.63;;
46110;SDS011;31849;55.992;37.252;2023-04-28T05:49:15;14.20;;;11.00;;
46110;SDS011;31849;55.992;37.252;2023-04-28T05:54:19;14.80;;;10.57;;
46110;SDS011;31849;55.992;37.252;2023-04-28T05:59:24;15.47;;;11.53;;
46110;SDS011;31849;55.992;37.252;2023-04-28T06:04:29;15.60;;;11.23;;
46110;SDS011;31849;55.992;37.252;2023-04-28T06:09:33;15.35;;;10.43;;
46110;SDS011;31849;55.992;37.252;2023-04-28T06:14:38;17.07;;;11.37;;
46110;SDS011;31849;55.992;37.252;2023-04-28T06:19:42;14.73;;;10.35;;
46110;SDS011;31849;55.992;37.252;2023-04-28T06:24:45;16.35;;;10.75;;
46110;SDS011;31849;55.992;37.252;2023-04-28T06:29:50;14.18;;;11.82;;
46110;SDS011;31849;55.992;37.252;2023-04-28T06:34:54;18.88;;;11.10;;
46110;SDS011;31849;55.992;37.252;2023-04-28T06:39:59;15.48;;;10.45;;
46110;SDS011;31849;55.992;37.252;2023-04-28T06:45:06;14.10;;;10.15;;
46110;SDS011;31849;55.992;37.252;2023-04-28T06:50:10;16.52;;;9.10;;
46110;SDS011;31849;55.992;37.252;2023-04-28T06:55:14;11.68;;;10.07;;
46110;SDS011;31849;55.992;37.252;2023-04-28T07:00:20;15.07;;;10.00;;
46110;SDS011;31849;55.992;37.252;2023-04-28T07:05:24;10.40;;;9.30;;
46110;SDS011;31849;55.992;37.252;2023-04-28T07:10:27;14.57;;;10.20;;
46110;SDS011;31849;55.992;37.252;2023-04-28T07:15:32;15.67;;;11.17;;
46110;SDS011;31849;55.992;37.252;2023-04-28T07:20:36;13.98;;;8.98;;
46110;SDS011;31849;55.992;37.252;2023-04-28T07:25:40;10.77;;;6.57;;
46110;SDS011;31849;55.992;37.252;2023-04-28T07:30:45;8.50;;;6.15;;
46110;SDS011;31849;55.992;37.252;2023-04-28T07:35:48;11.95;;;5.88;;
46110;SDS011;31849;55.992;37.252;2023-04-28T07:40:53;8.93;;;5.72;;
46110;SDS011;31849;55.992;37.252;2023-04-28T07:45:58;7.60;;;5.82;;
46110;SDS011;31849;55.992;37.252;2023-04-28T07:51:02;8.55;;;5.82;;
46110;SDS011;31849;55.992;37.252;2023-04-28T07:56:05;10.10;;;6.20;;
46110;SDS011;31849;55.992;37.252;2023-04-28T08:01:11;11.73;;;7.20;;
46110;SDS011;31849;55.992;37.252;2023-04-28T08:06:14;9.25;;;7.18;;
46110;SDS011;31849;55.992;37.252;2023-04-28T08:11:18;9.75;;;7.38;;
46110;SDS011;31849;55.992;37.252;2023-04-28T08:16:23;11.73;;;6.95;;
46110;SDS011;31849;55.992;37.252;2023-04-28T08:21:27;8.75;;;6.25;;
46110;SDS011;31849;55.992;37.252;2023-04-28T08:26:30;8.87;;;6.57;;
46110;SDS011;31849;55.992;37.252;2023-04-28T08:31:35;10.17;;;7.07;;
46110;SDS011;31849;55.992;37.252;2023-04-28T08:36:39;12.10;;;6.95;;
46110;SDS011;31849;55.992;37.252;2023-04-28T08:41:43;8.70;;;6.93;;
46110;SDS011;31849;55.992;37.252;2023-04-28T08:46:48;8.53;;;6.70;;
46110;SDS011;31849;55.992;37.252;2023-04-28T08:51:58;8.80;;;6.57;;
46110;SDS011;31849;55.992;37.252;2023-04-28T08:57:02;9.50;;;7.20;;
46110;SDS011;31849;55.992;37.252;2023-04-28T09:02:08;14.15;;;7.28;;
46110;SDS011;31849;55.992;37.252;2023-04-28T09:07:12;8.52;;;6.57;;
46110;SDS011;31849;55.992;37.252;2023-04-28T09:12:16;7.82;;;6.63;;
46110;SDS011;31849;55.992;37.252;2023-04-28T09:17:21;12.60;;;8.10;;
46110;SDS011;31849;55.992;37.252;2023-04-28T09:22:26;11.95;;;7.38;;
46110;SDS011;31849;55.992;37.252;2023-04-28T09:27:30;8.68;;;7.28;;
46110;SDS011;31849;55.992;37.252;2023-04-28T09:32:35;11.02;;;7.72;;
46110;SDS011;31849;55.992;37.252;2023-04-28T09:37:39;9.85;;;8.00;;
46110;SDS011;31849;55.992;37.252;2023-04-28T09:42:44;9.05;;;6.63;;
46110;SDS011;31849;55.992;37.252;2023-04-28T09:52:55;14.57;;;7.63;;
46110;SDS011;31849;55.992;37.252;2023-04-28T09:58:00;10.15;;;8.90;;
46110;SDS011;31849;55.992;37.252;2023-04-28T10:03:09;12.50;;;9.52;;
46110;SDS011;31849;55.992;37.252;2023-04-28T10:08:16;13.90;;;9.30;;
46110;SDS011;31849;55.992;37.252;2023-04-28T10:18:25;13.98;;;11.00;;
46110;SDS011;31849;55.992;37.252;2023-04-28T10:23:37;15.73;;;10.43;;
46110;SDS011;31849;55.992;37.252;2023-04-28T10:29:01;14.82;;;10.95;;
46110;SDS011;31849;55.992;37.252;2023-04-28T10:39:34;13.05;;;9.90;;
46110;SDS011;31849;55.992;37.252;2023-04-28T10:44:41;11.38;;;8.70;;
46110;SDS011;31849;55.992;37.252;2023-04-28T10:50:05;13.82;;;11.02;;
46110;SDS011;31849;55.992;37.252;2023-04-28T11:00:41;12.07;;;9.77;;
46110;SDS011;31849;55.992;37.252;2023-04-28T11:11:28;9.80;;;7.55;;
46110;SDS011;31849;55.992;37.252;2023-04-28T11:16:33;8.35;;;6.82;;
46110;SDS011;31849;55.992;37.252;2023-04-28T11:21:50;8.55;;;7.57;;
46110;SDS011;31849;55.992;37.252;2023-04-28T11:26:57;7.13;;;6.38;;
46110;SDS011;31849;55.992;37.252;2023-04-28T11:32:03;6.25;;;5.60;;
46110;SDS011;31849;55.992;37.252;2023-04-28T11:37:14;8.18;;;5.78;;
46110;SDS011;31849;55.992;37.252;2023-04-28T11:42:22;7.20;;;5.50;;
46110;SDS011;31849;55.992;37.252;2023-04-28T11:47:28;8.73;;;5.28;;
46110;SDS011;31849;55.992;37.252;2023-04-28T11:52:35;4.93;;;4.22;;
46110;SDS011;31849;55.992;37.252;2023-04-28T11:57:41;7.53;;;3.65;;
46110;SDS011;31849;55.992;37.252;2023-04-28T12:02:45;5.45;;;3.30;;
46110;SDS011;31849;55.992;37.252;2023-04-28T12:07:49;3.90;;;2.70;;
46110;SDS011;31849;55.992;37.252;2023-04-28T12:12:54;6.10;;;2.80;;
46110;SDS011;31849;55.992;37.252;2023-04-28T12:17:58;4.32;;;2.97;;
46110;SDS011;31849;55.992;37.252;2023-04-28T12:23:12;5.38;;;3.00;;
46110;SDS011;31849;55.992;37.252;2023-04-28T12:28:17;3.75;;;2.70;;
46110;SDS011;31849;55.992;37.252;2023-04-28T12:33:21;4.07;;;2.50;;
46110;SDS011;31849;55.992;37.252;2023-04-28T12:38:25;3.08;;;2.15;;
46110;SDS011;31849;55.992;37.252;2023-04-28T12:43:30;3.93;;;2.50;;
46110;SDS011;31849;55.992;37.252;2023-04-28T12:48:34;3.80;;;2.60;;
46110;SDS011;31849;55.992;37.252;2023-04-28T12:53:37;3.72;;;2.40;;
46110;SDS011;31849;55.992;37.252;2023-04-28T12:58:42;6.15;;;2.42;;
46110;SDS011;31849;55.992;37.252;2023-04-28T13:03:46;4.38;;;2.50;;
46110;SDS011;31849;55.992;37.252;2023-04-28T13:08:52;3.45;;;2.28;;
46110;SDS011;31849;55.992;37.252;2023-04-28T13:14:15;3.97;;;2.03;;
46110;SDS011;31849;55.992;37.252;2023-04-28T13:19:18;3.58;;;2.00;;
46110;SDS011;31849;55.992;37.252;2023-04-28T13:24:22;4.53;;;1.60;;
46110;SDS011;31849;55.992;37.252;2023-04-28T13:29:28;4.68;;;1.60;;
46110;SDS011;31849;55.992;37.252;2023-04-28T13:34:31;6.68;;;2.08;;
46110;SDS011;31849;55.992;37.252;2023-04-28T13:39:35;4.32;;;1.55;;
46110;SDS011;31849;55.992;37.252;2023-04-28T13:44:40;4.00;;;2.88;;
46110;SDS011;31849;55.992;37.252;2023-04-28T13:49:44;2.25;;;1.15;;
46110;SDS011;31849;55.992;37.252;2023-04-28T13:59:53;3.20;;;1.38;;
46110;SDS011;31849;55.992;37.252;2023-04-28T14:04:57;1.50;;;0.90;;
46110;SDS011;31849;55.992;37.252;2023-04-28T14:10:00;2.47;;;1.08;;
46110;SDS011;31849;55.992;37.252;2023-04-28T14:15:06;2.47;;;1.00;;
46110;SDS011;31849;55.992;37.252;2023-04-28T14:20:10;4.53;;;1.20;;
46110;SDS011;31849;55.992;37.252;2023-04-28T14:25:15;3.75;;;1.40;;
46110;SDS011;31849;55.992;37.252;2023-04-28T14:30:20;3.13;;;1.50;;
46110;SDS011;31849;55.992;37.252;2023-04-28T14:35:24;5.35;;;1.60;;
46110;SDS011;31849;55.992;37.252;2023-04-28T14:40:28;3.40;;;1.60;;
46110;SDS011;31849;55.992;37.252;2023-04-28T14:45:34;2.93;;;1.30;;
46110;SDS011;31849;55.992;37.252;2023-04-28T14:50:38;2.17;;;1.30;;
46110;SDS011;31849;55.992;37.252;2023-04-28T14:55:44;3.15;;;1.30;;
46110;SDS011;31849;55.992;37.252;2023-04-28T15:00:49;3.42;;;1.85;;
46110;SDS011;31849;55.992;37.252;2023-04-28T15:05:54;3.03;;;1.52;;
46110;SDS011;31849;55.992;37.252;2023-04-28T15:10:59;3.70;;;1.73;;
46110;SDS011;31849;55.992;37.252;2023-04-28T15:16:05;3.00;;;1.60;;
46110;SDS011;31849;55.992;37.252;2023-04-28T15:21:08;3.80;;;2.17;;
46110;SDS011;31849;55.992;37.252;2023-04-28T15:26:15;5.10;;;2.75;;
46110;SDS011;31849;55.992;37.252;2023-04-28T15:31:20;4.25;;;2.60;;
46110;SDS011;31849;55.992;37.252;2023-04-28T15:36:24;2.92;;;2.13;;
46110;SDS011;31849;55.992;37.252;2023-04-28T15:41:29;3.25;;;2.38;;
46110;SDS011;31849;55.992;37.252;2023-04-28T15:46:34;3.63;;;2.87;;
46110;SDS011;31849;55.992;37.252;2023-04-28T15:51:38;5.63;;;3.10;;
46110;SDS011;31849;55.992;37.252;2023-04-28T15:56:43;3.50;;;2.60;;
46110;SDS011;31849;55.992;37.252;2023-04-28T16:01:48;3.65;;;2.40;;
46110;SDS011;31849;55.992;37.252;2023-04-28T16:06:52;4.82;;;2.88;;
46110;SDS011;31849;55.992;37.252;2023-04-28T16:11:58;2.70;;;2.10;;
46110;SDS011;31849;55.992;37.252;2023-04-28T16:17:06;2.92;;;2.35;;
46110;SDS011;31849;55.992;37.252;2023-04-28T16:22:10;4.47;;;2.47;;
46110;SDS011;31849;55.992;37.252;2023-04-28T16:27:13;2.63;;;2.13;;
46110;SDS011;31849;55.992;37.252;2023-04-28T16:32:18;3.10;;;2.00;;
46110;SDS011;31849;55.992;37.252;2023-04-28T16:37:22;2.67;;;1.73;;
46110;SDS011;31849;55.992;37.252;2023-04-28T16:42:26;3.28;;;2.22;;
46110;SDS011;31849;55.992;37.252;2023-04-28T16:47:31;4.68;;;2.15;;
46110;SDS011;31849;55.992;37.252;2023-04-28T16:52:35;2.65;;;1.95;;
46110;SDS011;31849;55.992;37.252;2023-04-28T16:57:38;3.10;;;2.55;;
46110;SDS011;31849;55.992;37.252;2023-04-28T17:02:43;5.45;;;2.40;;
46110;SDS011;31849;55.992;37.252;2023-04-28T17:07:47;2.97;;;2.50;;
46110;SDS011;31849;55.992;37.252;2023-04-28T17:12:51;4.03;;;3.00;;
46110;SDS011;31849;55.992;37.252;2023-04-28T17:17:56;2.88;;;2.28;;
46110;SDS011;31849;55.992;37.252;2023-04-28T17:22:59;2.63;;;2.25;;
46110;SDS011;31849;55.992;37.252;2023-04-28T17:28:04;3.00;;;2.40;;
46110;SDS011;31849;55.992;37.252;2023-04-28T17:33:09;3.10;;;2.78;;
46110;SDS011;31849;55.992;37.252;2023-04-28T17:43:15;7.15;;;3.22;;
46110;SDS011;31849;55.992;37.252;2023-04-28T17:48:22;3.97;;;3.40;;
46110;SDS011;31849;55.992;37.252;2023-04-28T17:58:29;4.20;;;3.72;;
46110;SDS011;31849;55.992;37.252;2023-04-28T18:08:39;4.90;;;4.40;;
46110;SDS011;31849;55.992;37.252;2023-04-28T18:13:43;4.82;;;4.32;;
46110;SDS011;31849;55.992;37.252;2023-04-28T18:18:48;6.07;;;4.80;;
46110;SDS011;31849;55.992;37.252;2023-04-28T18:23:52;5.90;;;5.07;;
46110;SDS011;31849;55.992;37.252;2023-04-28T18:28:55;6.65;;;5.50;;
46110;SDS011;31849;55.992;37.252;2023-04-28T18:34:00;5.88;;;5.25;;
46110;SDS011;31849;55.992;37.252;2023-04-28T18:39:05;5.07;;;4.57;;
46110;SDS011;31849;55.992;37.252;2023-04-28T18:44:09;5.43;;;4.80;;
46110;SDS011;31849;55.992;37.252;2023-04-28T18:49:14;4.90;;;4.32;;
46110;SDS011;31849;55.992;37.252;2023-04-28T18:59:21;6.45;;;5.15;;
46110;SDS011;31849;55.992;37.252;2023-04-28T19:04:27;6.85;;;4.60;;
46110;SDS011;31849;55.992;37.252;2023-04-28T19:09:31;5.15;;;3.88;;
46110;SDS011;31849;55.992;37.252;2023-04-28T19:14:35;4.20;;;3.33;;
46110;SDS011;31849;55.992;37.252;2023-04-28T19:19:40;5.88;;;3.50;;
46110;SDS011;31849;55.992;37.252;2023-04-28T19:24:44;4.40;;;3.40;;
46110;SDS011;31849;55.992;37.252;2023-04-28T19:29:47;3.78;;;3.10;;
46110;SDS011;31849;55.992;37.252;2023-04-28T19:34:53;4.57;;;2.30;;
46110;SDS011;31849;55.992;37.252;2023-04-28T19:39:56;3.95;;;2.33;;
46110;SDS011;31849;55.992;37.252;2023-04-28T19:45:01;5.32;;;2.50;;
46110;SDS011;31849;55.992;37.252;2023-04-28T19:50:09;4.25;;;2.67;;
46110;SDS011;31849;55.992;37.252;2023-04-28T19:55:12;4.38;;;2.70;;
46110;SDS011;31849;55.992;37.252;2023-04-28T20:00:21;4.32;;;3.05;;
46110;SDS011;31849;55.992;37.252;2023-04-28T20:05:27;6.15;;;3.20;;
46110;SDS011;31849;55.992;37.252;2023-04-28T20:10:31;7.32;;;3.70;;
46110;SDS011;31849;55.992;37.252;2023-04-28T20:15:34;7.07;;;4.32;;
46110;SDS011;31849;55.992;37.252;2023-04-28T20:20:39;4.50;;;3.55;;
46110;SDS011;31849;55.992;37.252;2023-04-28T20:25:44;6.32;;;4.10;;
46110;SDS011;31849;55.992;37.252;2023-04-28T20:30:48;5.85;;;4.15;;
46110;SDS011;31849;55.992;37.252;2023-04-28T20:35:52;5.07;;;3.30;;
46110;SDS011;31849;55.992;37.252;2023-04-28T20:45:59;5.55;;;4.28;;
46110;SDS011;31849;55.992;37.252;2023-04-28T20:51:04;5.68;;;3.97;;
46110;SDS011;31849;55.992;37.252;2023-04-28T20:56:08;5.70;;;4.03;;
46110;SDS011;31849;55.992;37.252;2023-04-28T21:01:12;4.80;;;3.80;;
46110;SDS011;31849;55.992;37.252;2023-04-28T21:06:17;5.82;;;3.40;;
46110;SDS011;31849;55.992;37.252;2023-04-28T21:11:20;5.20;;;3.88;;
46110;SDS011;31849;55.992;37.252;2023-04-28T21:16:24;4.70;;;3.40;;
46110;SDS011;31849;55.992;37.252;2023-04-28T21:21:29;5.78;;;3.00;;
46110;SDS011;31849;55.992;37.252;2023-04-28T21:26:34;4.97;;;2.70;;
46110;SDS011;31849;55.992;37.252;2023-04-28T21:31:38;4.18;;;2.15;;
46110;SDS011;31849;55.992;37.252;2023-04-28T21:36:43;5.05;;;2.50;;
46110;SDS011;31849;55.992;37.252;2023-04-28T21:41:47;2.67;;;2.10;;
46110;SDS011;31849;55.992;37.252;2023-04-28T21:46:50;3.92;;;2.10;;
46110;SDS011;31849;55.992;37.252;2023-04-28T21:51:55;3.53;;;1.98;;
46110;SDS011;31849;55.992;37.252;2023-04-28T22:02:02;3.58;;;2.05;;
46110;SDS011;31849;55.992;37.252;2023-04-28T22:07:08;4.55;;;1.90;;
46110;SDS011;31849;55.992;37.252;2023-04-28T22:12:12;2.78;;;1.88;;
46110;SDS011;31849;55.992;37.252;2023-04-28T22:17:15;5.00;;;2.28;;
46110;SDS011;31849;55.992;37.252;2023-04-28T22:22:20;3.22;;;2.13;;
46110;SDS011;31849;55.992;37.252;2023-04-28T22:27:25;2.90;;;2.10;;
46110;SDS011;31849;55.992;37.252;2023-04-28T22:32:28;4.00;;;2.42;;
46110;SDS011;31849;55.992;37.252;2023-04-28T22:37:33;4.40;;;2.88;;
46110;SDS011;31849;55.992;37.252;2023-04-28T22:42:39;6.63;;;2.97;;
46110;SDS011;31849;55.992;37.252;2023-04-28T22:47:43;5.90;;;3.28;;
46110;SDS011;31849;55.992;37.252;2023-04-28T22:52:48;3.88;;;3.03;;
46110;SDS011;31849;55.992;37.252;2023-04-28T22:57:52;4.63;;;3.40;;
46110;SDS011;31849;55.992;37.252;2023-04-28T23:02:55;5.75;;;2.83;;
46110;SDS011;31849;55.992;37.252;2023-04-28T23:08:00;3.55;;;2.90;;
46110;SDS011;31849;55.992;37.252;2023-04-28T23:18:07;3.28;;;2.33;;
46110;SDS011;31849;55.992;37.252;2023-04-28T23:23:12;5.57;;;2.22;;
46110;SDS011;31849;55.992;37.252;2023-04-28T23:28:16;4.13;;;2.25;;
46110;SDS011;31849;55.992;37.252;2023-04-28T23:33:20;3.75;;;2.42;;
46110;SDS011;31849;55.992;37.252;2023-04-28T23:38:25;4.18;;;2.67;;
46110;SDS011;31849;55.992;37.252;2023-04-28T23:48:32;4.50;;;2.40;;
46110;SDS011;31849;55.992;37.252;2023-04-28T23:53:38;3.78;;;2.70;;
46110;SDS011;31849;55.992;37.252;2023-04-28T23:58:41;3.72;;;2.80;;
